createdAt,value
2023-01-07T00:00:34.237Z,101617.91
2023-01-07T00:01:38.539Z,101621.56
2023-01-07T00:02:40.413Z,101618.16
2023-01-07T00:03:43.174Z,101613.19
2023-01-07T00:04:45.090Z,101618.16
2023-01-07T00:05:46.946Z,101618.28
2023-01-07T00:06:50.118Z,101622.75
2023-01-07T00:07:51.960Z,101609.88
2023-01-07T00:08:56.132Z,101618.50
2023-01-07T00:09:57.945Z,101622.03
2023-01-07T00:11:03.941Z,101615.13
2023-01-07T00:12:05.802Z,101612.44
2023-01-07T00:13:07.632Z,101616.09
2023-01-07T00:14:11.663Z,101618.84
2023-01-07T00:15:13.566Z,101597.88
2023-01-07T00:16:17.900Z,101610.97
2023-01-07T00:17:19.679Z,101603.31
2023-01-07T00:18:21.544Z,101607.56
2023-01-07T00:19:24.344Z,101600.53
2023-01-07T00:20:26.095Z,101604.13
2023-01-07T00:21:29.190Z,101613.09
2023-01-07T00:22:31.005Z,101612.16
2023-01-07T00:23:34.049Z,101596.38
2023-01-07T00:24:35.847Z,101573.06
2023-01-07T00:25:37.705Z,101595.53
2023-01-07T00:26:41.680Z,101569.66
2023-01-07T00:27:43.559Z,101591.16
2023-01-07T00:28:48.081Z,101588.59
2023-01-07T00:29:49.923Z,101595.13
2023-01-07T00:30:51.793Z,101593.09
2023-01-07T00:31:53.873Z,101604.59
2023-01-07T00:33:04.617Z,101566.38
2023-01-07T00:34:07.087Z,101594.81
2023-01-07T00:35:22.000Z,101587.88
2023-01-07T00:36:27.031Z,101585.09
2023-01-07T00:37:47.301Z,101586.91
2023-01-07T00:38:56.973Z,101568.19
2023-01-07T00:39:58.805Z,101585.09
2023-01-07T00:41:00.773Z,101579.03
2023-01-07T00:42:21.132Z,101581.06
2023-01-07T00:43:23.028Z,101573.69
2023-01-07T00:44:24.880Z,101576.59
2023-01-07T00:45:27.170Z,101568.69
2023-01-07T00:46:29.831Z,101564.53
2023-01-07T00:47:31.648Z,101570.75
2023-01-07T00:48:33.510Z,101575.22
2023-01-07T00:49:35.312Z,101575.22
2023-01-07T00:50:38.188Z,101568.19
2023-01-07T00:51:40.000Z,101561.06
2023-01-07T00:52:42.053Z,101548.28
2023-01-07T00:53:44.392Z,101554.13
2023-01-07T00:54:46.611Z,101540.59
2023-01-07T00:55:50.084Z,101550.72
2023-01-07T00:56:51.966Z,101547.06
2023-01-07T00:57:54.367Z,101538.34
2023-01-07T00:58:56.479Z,101538.34
2023-01-07T00:59:58.296Z,101538.34
2023-01-07T01:01:01.720Z,101535.78
2023-01-07T01:02:03.891Z,101538.44
2023-01-07T01:03:05.858Z,101534.94
2023-01-07T01:04:08.314Z,101541.25
2023-01-07T01:05:11.500Z,101538.66
2023-01-07T01:06:16.026Z,101535.63
2023-01-07T01:07:17.908Z,101549.34
2023-01-07T01:08:21.265Z,101540.22
2023-01-07T01:09:25.387Z,101544.13
2023-01-07T01:10:28.520Z,101508.53
2023-01-07T01:11:30.343Z,101555.63
2023-01-07T01:12:32.330Z,101531.88
2023-01-07T01:13:34.751Z,101542.44
2023-01-07T01:14:36.668Z,101542.44
2023-01-07T01:15:42.789Z,101528.59
2023-01-07T01:16:44.819Z,101535.41
2023-01-07T01:17:47.151Z,101517.44
2023-01-07T01:18:48.948Z,101528.38
2023-01-07T01:19:50.856Z,101521.34
2023-01-07T01:20:55.062Z,101515.88
2023-01-07T01:21:56.943Z,101521.34
2023-01-07T01:22:58.790Z,101516.84
2023-01-07T01:24:00.830Z,101518.66
2023-01-07T01:25:02.660Z,101526.66
2023-01-07T01:26:09.047Z,101503.63
2023-01-07T01:27:10.935Z,101521.34
2023-01-07T01:28:12.784Z,101529.44
2023-01-07T01:29:14.573Z,101523.25
2023-01-07T01:30:16.493Z,101520.69
2023-01-07T01:31:19.309Z,101524.22
2023-01-07T01:32:25.318Z,101526.91
2023-01-07T01:33:27.220Z,101519.00
2023-01-07T01:34:29.173Z,101519.00
2023-01-07T01:35:31.154Z,101523.50
2023-01-07T01:36:33.021Z,101523.50
2023-01-07T01:37:35.175Z,101518.59
2023-01-07T01:38:37.697Z,101498.94
2023-01-07T01:39:39.559Z,101514.47
2023-01-07T01:40:41.385Z,101521.81
2023-01-07T01:41:43.539Z,101540.69
2023-01-07T01:42:45.311Z,101532.16
2023-01-07T01:43:51.688Z,101536.28
2023-01-07T01:44:59.332Z,101541.53
2023-01-07T01:46:17.533Z,101544.84
2023-01-07T01:47:27.542Z,101545.78
2023-01-07T01:48:31.388Z,101531.72
2023-01-07T01:49:38.668Z,101532.06
2023-01-07T01:50:46.512Z,101510.47
2023-01-07T01:51:57.569Z,101533.28
2023-01-07T01:53:04.852Z,101528.84
2023-01-07T01:54:11.369Z,101522.63
2023-01-07T01:55:17.111Z,101519.13
2023-01-07T01:56:27.485Z,101521.81
2023-01-07T01:57:33.193Z,101517.31
2023-01-07T01:58:43.005Z,101516.47
2023-01-07T01:59:49.915Z,101510.25
2023-01-07T02:00:52.261Z,101489.91
2023-01-07T02:01:55.009Z,101489.91
2023-01-07T02:02:58.904Z,101487.38
2023-01-07T02:04:05.165Z,101489.16
2023-01-07T02:05:07.852Z,101479.81
2023-01-07T02:06:14.748Z,101487.47
2023-01-07T02:07:18.132Z,101487.38
2023-01-07T02:08:25.183Z,101492.56
2023-01-07T02:09:30.151Z,101484.69
2023-01-07T02:10:33.253Z,101496.31
2023-01-07T02:11:50.209Z,101483.94
2023-01-07T02:13:12.044Z,101459.16
2023-01-07T02:14:41.168Z,101485.69
2023-01-07T02:16:13.788Z,101483.03
2023-01-07T02:17:44.757Z,101462.91
2023-01-07T02:18:49.438Z,101474.06
2023-01-07T02:20:09.666Z,101473.56
2023-01-07T02:21:28.250Z,101475.28
2023-01-07T02:22:56.875Z,101479.72
2023-01-07T02:24:01.764Z,101470.78
2023-01-07T02:25:21.811Z,101479.97
2023-01-07T02:26:29.641Z,101472.84
2023-01-07T02:28:19.731Z,101473.09
2023-01-07T02:29:37.021Z,101469.69
2023-01-07T02:30:50.941Z,101468.25
2023-01-07T02:32:49.905Z,101455.63
2023-01-07T02:34:03.073Z,101455.41
2023-01-07T02:35:16.727Z,101464.59
2023-01-07T02:36:34.271Z,101456.84
2023-01-07T02:37:57.158Z,101456.94
2023-01-07T02:39:31.164Z,101444.09
2023-01-07T02:40:43.909Z,101447.75
2023-01-07T02:41:51.535Z,101447.13
2023-01-07T02:43:11.324Z,101447.38
2023-01-07T02:44:29.926Z,101445.53
2023-01-07T02:45:44.461Z,101430.41
2023-01-07T02:46:54.558Z,101444.72
2023-01-07T02:48:05.411Z,101434.97
2023-01-07T02:49:14.416Z,101440.44
2023-01-07T02:50:16.309Z,101442.25
2023-01-07T02:51:18.208Z,101445.88
2023-01-07T02:52:23.328Z,101435.91
2023-01-07T02:53:25.225Z,101426.13
2023-01-07T02:54:30.036Z,101437.63
2023-01-07T02:55:57.037Z,101430.97
2023-01-07T02:57:28.702Z,101416.69
2023-01-07T02:58:31.726Z,101430.28
2023-01-07T02:59:41.684Z,101432.31
2023-01-07T03:01:07.377Z,101415.81
2023-01-07T03:02:36.143Z,101420.72
2023-01-07T03:04:03.478Z,101426.41
2023-01-07T03:05:44.853Z,101412.25
2023-01-07T03:06:46.632Z,101411.28
2023-01-07T03:07:55.752Z,101415.38
2023-01-07T03:09:07.541Z,101422.50
2023-01-07T03:10:25.738Z,101418.97
2023-01-07T03:11:35.171Z,101418.97
2023-01-07T03:12:53.210Z,101416.44
2023-01-07T03:14:08.207Z,101415.25
2023-01-07T03:15:27.497Z,101418.97
2023-01-07T03:16:37.636Z,101410.25
2023-01-07T03:17:46.319Z,101412.91
2023-01-07T03:18:59.446Z,101425.28
2023-01-07T03:20:05.880Z,101411.94
2023-01-07T03:21:12.801Z,101411.22
2023-01-07T03:22:18.077Z,101397.06
2023-01-07T03:23:23.689Z,101393.03
2023-01-07T03:24:28.030Z,101392.69
2023-01-07T03:25:30.957Z,101393.66
2023-01-07T03:26:39.191Z,101396.44
2023-01-07T03:27:45.679Z,101387.94
2023-01-07T03:28:50.193Z,101393.75
2023-01-07T03:29:54.254Z,101390.25
2023-01-07T03:30:58.762Z,101391.81
2023-01-07T03:32:13.422Z,101401.75
2023-01-07T03:33:21.462Z,101391.81
2023-01-07T03:34:26.510Z,101393.53
2023-01-07T03:35:31.036Z,101391.81
2023-01-07T03:36:52.795Z,101390.75
2023-01-07T03:37:56.171Z,101390.84
2023-01-07T03:38:59.105Z,101374.50
2023-01-07T03:40:06.547Z,101379.84
2023-01-07T03:41:08.713Z,101388.19
2023-01-07T03:42:30.484Z,101389.28
2023-01-07T03:43:32.679Z,101388.94
2023-01-07T03:44:34.883Z,101385.53
2023-01-07T03:45:36.741Z,101365.28
2023-01-07T03:46:39.050Z,101380.44
2023-01-07T03:47:46.353Z,101364.41
2023-01-07T03:48:48.938Z,101376.78
2023-01-07T03:49:50.766Z,101372.44
2023-01-07T03:50:52.667Z,101353.53
2023-01-07T03:51:55.300Z,101368.06
2023-01-07T03:52:57.629Z,101370.75
2023-01-07T03:54:00.166Z,101373.41
2023-01-07T03:55:02.188Z,101371.72
2023-01-07T03:56:05.312Z,101347.59
2023-01-07T03:57:07.111Z,101370.75
2023-01-07T03:58:09.018Z,101368.22
2023-01-07T03:59:11.071Z,101371.72
2023-01-07T04:00:15.586Z,101362.16
2023-01-07T04:01:23.072Z,101368.94
2023-01-07T04:02:25.692Z,101355.22
2023-01-07T04:03:27.480Z,101368.06
2023-01-07T04:04:29.917Z,101367.25
2023-01-07T04:05:31.948Z,101361.91
2023-01-07T04:06:34.185Z,101367.09
2023-01-07T04:07:36.160Z,101351.72
2023-01-07T04:08:38.017Z,101359.25
2023-01-07T04:09:41.207Z,101346.97
2023-01-07T04:10:44.027Z,101368.06
2023-01-07T04:11:48.090Z,101357.41
2023-01-07T04:12:50.295Z,101351.25
2023-01-07T04:13:52.188Z,101357.53
2023-01-07T04:14:54.199Z,101363.72
2023-01-07T04:15:56.644Z,101366.38
2023-01-07T04:16:58.508Z,101366.38
2023-01-07T04:18:00.389Z,101366.38
2023-01-07T04:19:03.984Z,101374.50
2023-01-07T04:20:08.091Z,101364.69
2023-01-07T04:21:10.888Z,101372.19
2023-01-07T04:22:12.838Z,101354.50
2023-01-07T04:23:17.435Z,101371.72
2023-01-07T04:24:21.570Z,101375.34
2023-01-07T04:25:23.842Z,101375.81
2023-01-07T04:26:25.771Z,101378.88
2023-01-07T04:27:27.826Z,101370.88
2023-01-07T04:28:29.677Z,101383.34
2023-01-07T04:29:32.678Z,101388.66
2023-01-07T04:30:35.571Z,101365.16
2023-01-07T04:31:37.523Z,101375.34
2023-01-07T04:32:39.848Z,101377.03
2023-01-07T04:33:41.779Z,101354.72
2023-01-07T04:34:43.677Z,101376.22
2023-01-07T04:35:48.772Z,101370.00
2023-01-07T04:36:51.603Z,101374.28
2023-01-07T04:37:53.390Z,101361.91
2023-01-07T04:38:55.966Z,101372.56
2023-01-07T04:39:57.772Z,101367.47
2023-01-07T04:40:59.736Z,101366.13
2023-01-07T04:42:01.559Z,101377.16
2023-01-07T04:43:04.239Z,101374.75
2023-01-07T04:44:06.614Z,101366.50
2023-01-07T04:45:09.210Z,101373.53
2023-01-07T04:46:11.357Z,101370.88
2023-01-07T04:47:13.298Z,101367.47
2023-01-07T04:48:15.111Z,101365.66
2023-01-07T04:49:17.717Z,101376.31
2023-01-07T04:50:20.136Z,101370.25
2023-01-07T04:51:22.599Z,101368.53
2023-01-07T04:52:24.801Z,101373.28
2023-01-07T04:53:29.096Z,101378.13
2023-01-07T04:54:30.998Z,101372.81
2023-01-07T04:55:32.966Z,101361.88
2023-01-07T04:56:36.089Z,101368.31
2023-01-07T04:57:38.412Z,101357.72
2023-01-07T04:58:40.633Z,101361.28
2023-01-07T04:59:42.499Z,101374.59
2023-01-07T05:00:45.562Z,101372.19
2023-01-07T05:01:47.812Z,101369.19
2023-01-07T05:02:50.626Z,101358.13
2023-01-07T05:03:52.744Z,101366.59
2023-01-07T05:04:55.065Z,101361.28
2023-01-07T05:05:57.541Z,101372.91
2023-01-07T05:06:59.362Z,101356.19
2023-01-07T05:08:02.176Z,101361.28
2023-01-07T05:09:05.370Z,101358.50
2023-01-07T05:10:08.605Z,101338.88
2023-01-07T05:11:10.822Z,101354.97
2023-01-07T05:12:16.485Z,101357.53
2023-01-07T05:13:21.213Z,101352.31
2023-01-07T05:14:23.136Z,101358.50
2023-01-07T05:15:28.292Z,101350.38
2023-01-07T05:16:31.163Z,101357.88
2023-01-07T05:17:36.508Z,101354.88
2023-01-07T05:18:39.463Z,101354.00
2023-01-07T05:19:42.229Z,101351.34
2023-01-07T05:20:48.405Z,101302.59
2023-01-07T05:21:50.356Z,101331.38
2023-01-07T05:22:52.942Z,101340.81
2023-01-07T05:23:55.045Z,101343.34
2023-01-07T05:24:57.597Z,101338.03
2023-01-07T05:26:01.729Z,101338.03
2023-01-07T05:27:05.746Z,101330.16
2023-01-07T05:28:10.027Z,101333.66
2023-01-07T05:29:14.165Z,101329.53
2023-01-07T05:30:18.049Z,101329.19
2023-01-07T05:31:21.494Z,101328.31
2023-01-07T05:32:23.502Z,101325.56
2023-01-07T05:33:25.752Z,101328.31
2023-01-07T05:34:28.907Z,101324.81
2023-01-07T05:35:32.496Z,101298.75
2023-01-07T05:36:35.389Z,101335.34
2023-01-07T05:37:38.718Z,101323.84
2023-01-07T05:38:42.767Z,101317.91
2023-01-07T05:39:45.513Z,101323.84
2023-01-07T05:40:52.156Z,101315.22
2023-01-07T05:41:57.471Z,101325.41
2023-01-07T05:43:00.716Z,101310.16
2023-01-07T05:44:03.767Z,101312.34
2023-01-07T05:45:06.162Z,101302.88
2023-01-07T05:46:08.058Z,101313.19
2023-01-07T05:47:09.940Z,101318.63
2023-01-07T05:48:12.696Z,101323.00
2023-01-07T05:49:14.515Z,101308.44
2023-01-07T05:50:16.346Z,101320.31
2023-01-07T05:51:18.209Z,101320.31
2023-01-07T05:52:19.983Z,101319.50
2023-01-07T05:53:21.844Z,101317.81
2023-01-07T05:54:23.605Z,101313.19
2023-01-07T05:55:25.509Z,101299.72
2023-01-07T05:56:27.479Z,101313.31
2023-01-07T05:57:29.332Z,101311.50
2023-01-07T05:58:31.176Z,101313.31
2023-01-07T05:59:34.831Z,101313.31
2023-01-07T06:00:37.219Z,101314.16
2023-01-07T06:01:39.084Z,101315.88
2023-01-07T06:02:40.901Z,101301.41
2023-01-07T06:03:42.858Z,101321.28
2023-01-07T06:04:44.872Z,101311.59
2023-01-07T06:05:47.265Z,101317.81
2023-01-07T06:06:49.136Z,101324.69
2023-01-07T06:07:51.010Z,101318.63
2023-01-07T06:08:52.784Z,101313.31
2023-01-07T06:09:54.595Z,101316.94
2023-01-07T06:10:56.355Z,101315.97
2023-01-07T06:11:58.372Z,101309.91
2023-01-07T06:13:00.238Z,101313.31
2023-01-07T06:14:02.130Z,101312.34
2023-01-07T06:15:04.640Z,101310.63
2023-01-07T06:16:09.521Z,101302.63
2023-01-07T06:17:11.347Z,101306.91
2023-01-07T06:18:13.165Z,101309.66
2023-01-07T06:19:15.104Z,101303.50
2023-01-07T06:20:17.084Z,101300.59
2023-01-07T06:21:19.025Z,101300.44
2023-01-07T06:22:20.807Z,101301.31
2023-01-07T06:23:22.923Z,101287.25
2023-01-07T06:24:24.751Z,101305.31
2023-01-07T06:25:26.628Z,101305.19
2023-01-07T06:26:28.456Z,101299.25
2023-01-07T06:27:30.365Z,101312.34
2023-01-07T06:28:32.276Z,101297.31
2023-01-07T06:29:34.038Z,101290.53
2023-01-07T06:30:35.873Z,101294.16
2023-01-07T06:31:37.743Z,101307.97
2023-01-07T06:32:44.770Z,101302.63
2023-01-07T06:33:46.686Z,101306.91
2023-01-07T06:34:48.449Z,101284.69
2023-01-07T06:35:50.272Z,101306.16
2023-01-07T06:36:52.067Z,101304.56
2023-01-07T06:37:54.012Z,101301.19
2023-01-07T06:38:55.818Z,101299.97
2023-01-07T06:39:58.360Z,101303.50
2023-01-07T06:41:01.921Z,101307.97
2023-01-07T06:42:03.808Z,101307.97
2023-01-07T06:43:05.638Z,101298.16
2023-01-07T06:44:07.640Z,101290.13
2023-01-07T06:45:10.031Z,101299.63
2023-01-07T06:46:11.945Z,101296.56
2023-01-07T06:47:13.858Z,101290.53
2023-01-07T06:48:15.682Z,101296.47
2023-01-07T06:49:17.548Z,101292.94
2023-01-07T06:50:19.388Z,101292.94
2023-01-07T06:51:21.223Z,101286.41
2023-01-07T06:52:23.181Z,101290.28
2023-01-07T06:53:24.968Z,101300.84
2023-01-07T06:54:26.775Z,101294.63
2023-01-07T06:55:28.605Z,101299.25
2023-01-07T06:56:30.513Z,101285.44
2023-01-07T06:57:32.497Z,101283.50
2023-01-07T06:58:34.374Z,101254.66
2023-01-07T06:59:36.178Z,101275.97
2023-01-07T07:00:38.008Z,101290.28
2023-01-07T07:01:39.965Z,101288.34
2023-01-07T07:02:42.163Z,101288.34
2023-01-07T07:03:43.973Z,101276.59
2023-01-07T07:04:45.833Z,101291.16
2023-01-07T07:05:47.744Z,101263.47
2023-01-07T07:06:49.593Z,101283.97
2023-01-07T07:07:51.476Z,101288.25
2023-01-07T07:08:53.334Z,101277.19
2023-01-07T07:09:55.195Z,101289.78
2023-01-07T07:10:56.959Z,101270.91
2023-01-07T07:11:58.741Z,101284.22
2023-01-07T07:13:00.570Z,101266.91
2023-01-07T07:14:03.977Z,101266.78
2023-01-07T07:15:07.979Z,101277.56
2023-01-07T07:16:09.851Z,101266.28
2023-01-07T07:17:11.737Z,101276.25
2023-01-07T07:18:13.556Z,101274.31
2023-01-07T07:19:15.486Z,101267.88
2023-01-07T07:20:18.664Z,101274.06
2023-01-07T07:21:20.462Z,101278.91
2023-01-07T07:22:22.552Z,101268.00
2023-01-07T07:23:24.657Z,101271.16
2023-01-07T07:24:26.745Z,101272.13
2023-01-07T07:25:28.883Z,101277.84
2023-01-07T07:26:30.728Z,101261.09
2023-01-07T07:27:32.596Z,101278.06
2023-01-07T07:28:34.387Z,101266.28
2023-01-07T07:29:36.176Z,101274.78
2023-01-07T07:30:46.900Z,101280.72
2023-01-07T07:31:49.957Z,101277.53
2023-01-07T07:32:51.700Z,101263.38
2023-01-07T07:33:53.587Z,101253.06
2023-01-07T07:34:58.368Z,101268.00
2023-01-07T07:36:00.578Z,101256.44
2023-01-07T07:37:02.547Z,101251.38
2023-01-07T07:38:04.320Z,101267.13
2023-01-07T07:39:07.087Z,101260.09
2023-01-07T07:40:09.531Z,101264.91
2023-01-07T07:41:11.301Z,101269.88
2023-01-07T07:42:13.181Z,101261.75
2023-01-07T07:43:18.582Z,101252.66
2023-01-07T07:44:20.492Z,101253.75
2023-01-07T07:45:22.303Z,101268.16
2023-01-07T07:46:24.144Z,101260.16
2023-01-07T07:47:25.988Z,101249.97
2023-01-07T07:48:27.862Z,101269.47
2023-01-07T07:49:30.255Z,101251.16
2023-01-07T07:50:32.023Z,101264.72
2023-01-07T07:51:33.869Z,101270.78
2023-01-07T07:52:35.687Z,101268.84
2023-01-07T07:53:37.443Z,101268.13
2023-01-07T07:54:39.239Z,101272.22
2023-01-07T07:55:41.196Z,101272.94
2023-01-07T07:56:43.028Z,101271.00
2023-01-07T07:57:44.821Z,101260.00
2023-01-07T07:58:46.579Z,101267.34
2023-01-07T07:59:48.346Z,101263.13
2023-01-07T08:00:50.303Z,101274.84
2023-01-07T08:01:52.388Z,101269.50
2023-01-07T08:02:58.386Z,101273.88
2023-01-07T08:04:00.203Z,101276.28
2023-01-07T08:05:02.201Z,101272.78
2023-01-07T08:06:05.203Z,101269.25
2023-01-07T08:07:07.115Z,101271.66
2023-01-07T08:08:12.612Z,101266.31
2023-01-07T08:09:14.361Z,101259.06
2023-01-07T08:10:16.249Z,101260.00
2023-01-07T08:11:18.079Z,101259.88
2023-01-07T08:12:19.851Z,101252.22
2023-01-07T08:13:21.970Z,101254.41
2023-01-07T08:14:23.784Z,101250.78
2023-01-07T08:15:25.546Z,101246.25
2023-01-07T08:16:28.237Z,101248.38
2023-01-07T08:17:30.020Z,101248.81
2023-01-07T08:18:32.033Z,101251.50
2023-01-07T08:19:33.842Z,101247.84
2023-01-07T08:20:37.009Z,101239.81
2023-01-07T08:21:38.804Z,101249.53
2023-01-07T08:22:40.717Z,101244.19
2023-01-07T08:23:42.661Z,101235.19
2023-01-07T08:24:44.502Z,101241.38
2023-01-07T08:25:46.325Z,101231.53
2023-01-07T08:26:48.221Z,101237.72
2023-01-07T08:27:50.029Z,101235.91
2023-01-07T08:28:51.866Z,101235.91
2023-01-07T08:29:54.780Z,101228.72
2023-01-07T08:30:56.603Z,101232.25
2023-01-07T08:31:58.438Z,101226.22
2023-01-07T08:33:00.453Z,101229.59
2023-01-07T08:34:02.228Z,101234.78
2023-01-07T08:35:04.564Z,101235.78
2023-01-07T08:36:18.165Z,101240.13
2023-01-07T08:37:23.457Z,101244.25
2023-01-07T08:38:26.511Z,101241.56
2023-01-07T08:39:28.308Z,101238.88
2023-01-07T08:40:30.123Z,101241.72
2023-01-07T08:41:31.994Z,101235.50
2023-01-07T08:42:33.820Z,101237.34
2023-01-07T08:43:36.218Z,101240.00
2023-01-07T08:44:38.092Z,101235.50
2023-01-07T08:45:39.855Z,101240.00
2023-01-07T08:46:42.909Z,101238.59
2023-01-07T08:47:47.827Z,101243.53
2023-01-07T08:48:49.603Z,101224.88
2023-01-07T08:49:51.510Z,101242.53
2023-01-07T08:50:54.604Z,101239.03
2023-01-07T08:51:56.416Z,101238.88
2023-01-07T08:52:58.797Z,101234.41
2023-01-07T08:54:00.553Z,101233.53
2023-01-07T08:55:02.380Z,101227.63
2023-01-07T08:56:04.348Z,101234.53
2023-01-07T08:57:06.152Z,101229.19
2023-01-07T08:58:08.053Z,101232.84
2023-01-07T08:59:09.973Z,101228.47
2023-01-07T09:00:13.580Z,101230.88
2023-01-07T09:01:16.315Z,101215.25
2023-01-07T09:02:19.771Z,101234.41
2023-01-07T09:03:21.661Z,101208.75
2023-01-07T09:04:23.587Z,101192.63
2023-01-07T09:05:25.373Z,101235.25
2023-01-07T09:06:27.164Z,101237.81
2023-01-07T09:07:28.975Z,101235.13
2023-01-07T09:08:31.061Z,101233.28
2023-01-07T09:09:32.862Z,101229.78
2023-01-07T09:10:34.643Z,101234.16
2023-01-07T09:11:36.516Z,101232.44
2023-01-07T09:12:38.424Z,101229.31
2023-01-07T09:13:40.211Z,101234.16
2023-01-07T09:14:41.979Z,101232.44
2023-01-07T09:15:44.817Z,101232.31
2023-01-07T09:16:46.753Z,101235.25
2023-01-07T09:17:48.684Z,101241.31
2023-01-07T09:18:50.906Z,101230.50
2023-01-07T09:19:52.819Z,101212.44
2023-01-07T09:20:54.687Z,101226.13
2023-01-07T09:21:56.751Z,101232.19
2023-01-07T09:22:58.577Z,101227.72
2023-01-07T09:24:00.667Z,101220.53
2023-01-07T09:25:02.780Z,101226.59
2023-01-07T09:26:04.634Z,101225.59
2023-01-07T09:27:06.403Z,101227.44
2023-01-07T09:28:08.228Z,101222.09
2023-01-07T09:29:10.314Z,101216.75
2023-01-07T09:30:13.150Z,101217.59
2023-01-07T09:31:15.047Z,101220.97
2023-01-07T09:32:17.914Z,101215.63
2023-01-07T09:33:19.745Z,101216.59
2023-01-07T09:34:21.608Z,101215.63
2023-01-07T09:35:23.492Z,101212.94
2023-01-07T09:36:25.629Z,101210.28
2023-01-07T09:37:27.390Z,101180.91
2023-01-07T09:38:29.978Z,101202.16
2023-01-07T09:39:31.936Z,101211.00
2023-01-07T09:40:39.545Z,101213.66
2023-01-07T09:42:34.651Z,101207.28
2023-01-07T09:43:59.732Z,101201.22
2023-01-07T09:45:11.984Z,101202.69
2023-01-07T09:46:16.409Z,101196.31
2023-01-07T09:47:22.116Z,101190.25
2023-01-07T09:48:30.367Z,101200.78
2023-01-07T09:49:33.353Z,101197.13
2023-01-07T09:50:40.939Z,101197.13
2023-01-07T09:51:48.871Z,101193.75
2023-01-07T09:52:53.883Z,101196.31
2023-01-07T09:53:59.705Z,101196.31
2023-01-07T09:55:16.240Z,101194.72
2023-01-07T09:56:40.005Z,101185.06
2023-01-07T09:57:41.996Z,101186.88
2023-01-07T09:58:46.850Z,101182.78
2023-01-07T09:59:48.718Z,101188.13
2023-01-07T10:01:13.355Z,101176.34
2023-01-07T10:02:33.913Z,101181.41
2023-01-07T10:03:41.786Z,101182.28
2023-01-07T10:05:17.558Z,101189.31
2023-01-07T10:06:43.041Z,101187.34
2023-01-07T10:08:31.265Z,101180.16
2023-01-07T10:09:31.339Z,101179.91
2023-01-07T10:10:48.740Z,101178.63
2023-01-07T10:12:00.594Z,101183.00
2023-01-07T10:13:22.872Z,101177.66
2023-01-07T10:14:30.392Z,101183.81
2023-01-07T10:15:38.255Z,101177.88
2023-01-07T10:16:53.527Z,101187.63
2023-01-07T10:18:06.117Z,101180.72
2023-01-07T10:19:25.714Z,101179.72
2023-01-07T10:20:42.786Z,101183.09
2023-01-07T10:22:02.592Z,101184.53
2023-01-07T10:23:11.198Z,101182.13
2023-01-07T10:24:25.025Z,101178.63
2023-01-07T10:25:32.372Z,101176.06
2023-01-07T10:26:39.389Z,101179.72
2023-01-07T10:27:44.264Z,101177.16
2023-01-07T10:28:52.649Z,101176.72
2023-01-07T10:29:58.515Z,101187.88
2023-01-07T10:31:01.729Z,101178.03
2023-01-07T10:32:12.810Z,101184.47
2023-01-07T10:33:29.136Z,101186.88
2023-01-07T10:34:37.458Z,101180.56
2023-01-07T10:35:41.325Z,101184.09
2023-01-07T10:36:56.869Z,101166.75
2023-01-07T10:38:04.336Z,101179.72
2023-01-07T10:39:25.389Z,101181.31
2023-01-07T10:40:46.904Z,101180.06
2023-01-07T10:41:51.967Z,101174.69
2023-01-07T10:43:41.198Z,101181.16
2023-01-07T10:45:04.322Z,101182.03
2023-01-07T10:46:24.152Z,101178.81
2023-01-07T10:47:50.603Z,101183.16
2023-01-07T10:49:03.059Z,101176.13
2023-01-07T10:50:25.784Z,101157.47
2023-01-07T10:51:52.204Z,101181.19
2023-01-07T10:53:28.868Z,101174.88
2023-01-07T10:54:48.673Z,101173.88
2023-01-07T10:56:14.924Z,101174.16
2023-01-07T10:57:25.395Z,101168.81
2023-01-07T10:58:36.600Z,101158.06
2023-01-07T10:59:38.915Z,101171.03
2023-01-07T11:00:41.733Z,101166.78
2023-01-07T11:01:51.523Z,101161.72
2023-01-07T11:02:58.000Z,101160.63
2023-01-07T11:04:01.337Z,101160.63
2023-01-07T11:05:03.228Z,101150.19
2023-01-07T11:06:10.684Z,101154.41
2023-01-07T11:07:27.555Z,101156.81
2023-01-07T11:08:36.861Z,101154.84
2023-01-07T11:09:42.528Z,101163.75
2023-01-07T11:10:44.272Z,101158.38
2023-01-07T11:11:47.075Z,101158.38
2023-01-07T11:12:53.608Z,101160.34
2023-01-07T11:14:11.945Z,101164.44
2023-01-07T11:15:31.277Z,101153.75
2023-01-07T11:16:43.351Z,101156.16
2023-01-07T11:17:51.775Z,101147.16
2023-01-07T11:19:03.766Z,101148.97
2023-01-07T11:20:06.827Z,101154.19
2023-01-07T11:21:08.712Z,101155.28
2023-01-07T11:22:33.780Z,101155.03
2023-01-07T11:23:35.795Z,101152.34
2023-01-07T11:24:37.630Z,101157.84
2023-01-07T11:25:39.459Z,101161.50
2023-01-07T11:26:41.305Z,101163.31
2023-01-07T11:27:45.885Z,101160.78
2023-01-07T11:28:56.376Z,101150.22
2023-01-07T11:30:21.789Z,101151.63
2023-01-07T11:31:44.271Z,101152.53
2023-01-07T11:32:55.664Z,101151.69
2023-01-07T11:34:01.424Z,101147.31
2023-01-07T11:35:19.824Z,101143.94
2023-01-07T11:36:39.584Z,101125.22
2023-01-07T11:37:43.554Z,101136.63
2023-01-07T11:38:46.543Z,101135.91
2023-01-07T11:39:59.652Z,101132.81
2023-01-07T11:41:01.752Z,101134.94
2023-01-07T11:42:34.946Z,101140.28
2023-01-07T11:43:40.940Z,101138.19
2023-01-07T11:44:42.724Z,101145.50
2023-01-07T11:46:20.151Z,101144.91
2023-01-07T11:47:17.647Z,101145.22
2023-01-07T11:48:35.642Z,101143.53
2023-01-07T11:49:44.353Z,101144.63
2023-01-07T11:50:59.923Z,101134.53
2023-01-07T11:52:01.761Z,101137.31
2023-01-07T11:53:15.811Z,101137.31
2023-01-07T11:54:29.298Z,101137.31
2023-01-07T11:55:31.298Z,101146.22
2023-01-07T11:56:34.416Z,101141.97
2023-01-07T11:57:36.719Z,101143.81
2023-01-07T11:58:44.582Z,101138.59
2023-01-07T11:59:46.469Z,101132.66
2023-01-07T12:01:08.906Z,101133.81
2023-01-07T12:02:31.112Z,101141.31
2023-01-07T12:03:33.145Z,101141.56
2023-01-07T12:04:37.190Z,101141.69
2023-01-07T12:05:44.447Z,101137.31
2023-01-07T12:06:49.379Z,101130.56
2023-01-07T12:07:51.987Z,101136.50
2023-01-07T12:09:05.226Z,101134.34
2023-01-07T12:10:26.983Z,101132.41
2023-01-07T12:11:34.802Z,101133.28
2023-01-07T12:12:40.136Z,101134.25
2023-01-07T12:13:48.303Z,101128.47
2023-01-07T12:14:50.505Z,101131.84
2023-01-07T12:16:08.132Z,101124.66
2023-01-07T12:17:18.617Z,101135.09
2023-01-07T12:18:28.946Z,101124.38
2023-01-07T12:19:58.978Z,101129.63
2023-01-07T12:21:34.002Z,101127.09
2023-01-07T12:22:35.803Z,101123.56
2023-01-07T12:24:09.417Z,101128.91
2023-01-07T12:25:45.657Z,101133.28
2023-01-07T12:26:54.846Z,101126.13
2023-01-07T12:28:14.821Z,101125.53
2023-01-07T12:29:22.294Z,101102.13
2023-01-07T12:30:59.207Z,101124.13
2023-01-07T12:32:16.625Z,101123.72
2023-01-07T12:33:36.823Z,101133.44
2023-01-07T12:34:48.162Z,101118.50
2023-01-07T12:35:51.214Z,101122.16